Map

Track Data

SID SEASON NUMBER BASIN SUBBASIN NAME ISO_TIME NATURE LAT LON WMO_WIND WMO_PRES WMO_AGENCY TRACK_TYPE DIST2LAND LANDFALL IFLAG USA_AGENCY USA_ATCF_ID USA_LAT USA_LON USA_RECORD USA_STATUS USA_WIND USA_PRES USA_SSHS USA_R34_NE USA_R34_SE USA_R34_SW USA_R34_NW USA_R50_NE USA_R50_SE USA_R50_SW USA_R50_NW USA_R64_NE USA_R64_SE USA_R64_SW USA_R64_NW USA_POCI USA_ROCI USA_RMW USA_EYE TOKYO_LAT TOKYO_LON TOKYO_GRADE TOKYO_WIND TOKYO_PRES TOKYO_R50_DIR TOKYO_R50_LONG TOKYO_R50_SHORT TOKYO_R30_DIR TOKYO_R30_LONG TOKYO_R30_SHORT TOKYO_LAND CMA_LAT CMA_LON CMA_CAT CMA_WIND CMA_PRES HKO_LAT HKO_LON HKO_CAT HKO_WIND HKO_PRES NEWDELHI_LAT NEWDELHI_LON NEWDELHI_GRADE NEWDELHI_WIND NEWDELHI_PRES NEWDELHI_CI NEWDELHI_DP NEWDELHI_POCI REUNION_LAT REUNION_LON REUNION_TYPE REUNION_WIND REUNION_PRES REUNION_TNUM REUNION_CI REUNION_RMW REUNION_R34_NE REUNION_R34_SE REUNION_R34_SW REUNION_R34_NW REUNION_R50_NE REUNION_R50_SE REUNION_R50_SW REUNION_R50_NW REUNION_R64_NE REUNION_R64_SE REUNION_R64_SW REUNION_R64_NW BOM_LAT BOM_LON BOM_TYPE BOM_WIND BOM_PRES BOM_TNUM BOM_CI BOM_RMW BOM_R34_NE BOM_R34_SE BOM_R34_SW BOM_R34_NW BOM_R50_NE BOM_R50_SE BOM_R50_SW BOM_R50_NW BOM_R64_NE BOM_R64_SE BOM_R64_SW BOM_R64_NW BOM_ROCI BOM_POCI BOM_EYE BOM_POS_METHOD BOM_PRES_METHOD NADI_LAT NADI_LON NADI_CAT NADI_WIND NADI_PRES WELLINGTON_LAT WELLINGTON_LON WELLINGTON_WIND WELLINGTON_PRES DS824_LAT DS824_LON DS824_STAGE DS824_WIND DS824_PRES TD9636_LAT TD9636_LON TD9636_STAGE TD9636_WIND TD9636_PRES TD9635_LAT TD9635_LON TD9635_WIND TD9635_PRES TD9635_ROCI NEUMANN_LAT NEUMANN_LON NEUMANN_CLASS NEUMANN_WIND NEUMANN_PRES MLC_LAT MLC_LON MLC_CLASS MLC_WIND MLC_PRES USA_GUST BOM_GUST BOM_GUST_PER REUNION_GUST REUNION_GUST_PER USA_SEAHGT USA_SEARAD_NE USA_SEARAD_SE USA_SEARAD_SW USA_SEARAD_NW STORM_SPEED STORM_DIR
1888261N28320 1888 48 NA NA NOT_NAMED 1888-09-16 12:00:00 TS 28.2000 -40.2000 main 2285 2264 _____________O -1 28.2000 -40.2000 TS 35 6 45
1888261N28320 1888 48 NA NA NOT_NAMED 1888-09-16 15:00:00 TS 28.4100 -39.9627 main 2264 2232 _____________P -1 28.4100 -39.9627 TS 37 6 48
1888261N28320 1888 48 NA NA NOT_NAMED 1888-09-16 18:00:00 TS 28.6000 -39.7000 main 2232 2202 _____________O -1 28.6000 -39.7000 TS 40 6 55
1888261N28320 1888 48 NA NA NOT_NAMED 1888-09-16 21:00:00 TS 28.7575 -39.3999 main 2202 2172 _____________P -1 28.7575 -39.3999 TS 42 6 60
1888261N28320 1888 48 NA NA NOT_NAMED 1888-09-17 00:00:00 TS 28.9000 -39.1000 main 2172 2152 _____________O -1 28.9000 -39.1000 TS 45 6 59
1888261N28320 1888 48 NA NA NOT_NAMED 1888-09-17 03:00:00 TS 29.0499 -38.8499 main 2142 2121 _____________P -1 29.0499 -38.8499 TS 45 5 55
1888261N28320 1888 48 NA NA NOT_NAMED 1888-09-17 06:00:00 TS 29.2000 -38.6000 main 2121 2092 _____________O -1 29.2000 -38.6000 TS 45 6 61
1888261N28320 1888 48 NA NA NOT_NAMED 1888-09-17 09:00:00 TS 29.3201 -38.2849 main 2092 2062 _____________P -1 29.3201 -38.2849 TS 45 6 60
1888261N28320 1888 48 NA NA NOT_NAMED 1888-09-17 12:00:00 TS 29.5000 -38.0000 main 2062 2042 _____________O -1 29.5000 -38.0000 TS 45 6 38
1888261N28320 1888 48 NA NA NOT_NAMED 1888-09-17 15:00:00 TS 29.8274 -37.8349 main 2042 2033 _____________P -1 29.8274 -37.8349 TS 45 7 20
1888261N28320 1888 48 NA NA NOT_NAMED 1888-09-17 18:00:00 TS 30.2000 -37.7000 main 2033 2014 _____________O -1 30.2000 -37.7000 TS 45 7 23
1888261N28320 1888 48 NA NA NOT_NAMED 1888-09-17 21:00:00 TS 30.5075 -37.5074 main 2014 1996 _____________P -1 30.5075 -37.5074 TS 45 7 30
1888261N28320 1888 48 NA NA NOT_NAMED 1888-09-18 00:00:00 TS 30.8000 -37.3000 main 1996 1979 _____________O -1 30.8000 -37.3000 TS 45 7 30
1888261N28320 1888 48 NA NA NOT_NAMED 1888-09-18 03:00:00 TS 31.1000 -37.0999 main 1979 1962 _____________P -1 31.1000 -37.0999 TS 45 7 30
1888261N28320 1888 48 NA NA NOT_NAMED 1888-09-18 06:00:00 TS 31.4000 -36.9000 main 1963 1946 _____________O -1 31.4000 -36.9000 TS 45 7 31
1888261N28320 1888 48 NA NA NOT_NAMED 1888-09-18 09:00:00 TS 31.6682 -36.6971 main 1947 1931 _____________P -1 31.6682 -36.6971 TS 45 7 30
1888261N28320 1888 48 NA NA NOT_NAMED 1888-09-18 12:00:00 TS 32.0000 -36.5000 main 1933 1920 _____________O -1 32.0000 -36.5000 TS 45 9 21
1888261N28320 1888 48 NA NA NOT_NAMED 1888-09-18 15:00:00 TS 32.4984 -36.3202 main 1922 1918 _____________P -1 32.4984 -36.3202 TS 45 12 15
1888261N28320 1888 48 NA NA NOT_NAMED 1888-09-18 18:00:00 TS 33.1187 -36.1497 main 1915 1915 _____________P -1 33.1187 -36.1497 TS 45 13 12
1888261N28320 1888 48 NA NA NOT_NAMED 1888-09-18 21:00:00 TS 33.8047 -35.9794 main 1922 1918 _____________P -1 33.8047 -35.9794 TS 45 14 12
1888261N28320 1888 48 NA NA NOT_NAMED 1888-09-19 00:00:00 TS 34.5000 -35.8000 main 1924 1922 _____________O -1 34.5000 -35.8000 TS 45 14 13
1888261N28320 1888 48 NA NA NOT_NAMED 1888-09-19 03:00:00 TS 35.1557 -35.6023 main 1930 1901 _____________P -1 35.1557 -35.6023 TS 45 13 14
1888261N28320 1888 48 NA NA NOT_NAMED 1888-09-19 06:00:00 TS 35.8000 -35.4000 main 1901 1867 _____________O -1 35.8000 -35.4000 TS 45 13 14
1888261N28320 1888 48 NA NA NOT_NAMED 1888-09-19 09:00:00 TS 36.3998 -35.2215 main 1867 1834 _____________P -1 36.3998 -35.2215 TS 45 12 15
1888261N28320 1888 48 NA NA NOT_NAMED 1888-09-19 12:00:00 TS 37.0000 -35.0000 main 1834 1810 _____________O -1 37.0000 -35.0000 TS 45 13 19
1888261N28320 1888 48 NA NA NOT_NAMED 1888-09-19 15:00:00 TS 37.6500 -34.6800 main 1803 1788 _____________P -1 37.6500 -34.6800 TS 45 14 23
1888261N28320 1888 48 NA NA NOT_NAMED 1888-09-19 18:00:00 TS 38.3000 -34.3000 main 1788 1775 _____________O -1 38.3000 -34.3000 TS 45 14 26
1888261N28320 1888 48 NA NA NOT_NAMED 1888-09-19 21:00:00 TS 38.9000 -33.8995 main 1776 1764 _____________P -1 38.9000 -33.8995 TS 45 14 27
1888261N28320 1888 48 NA NA NOT_NAMED 1888-09-20 00:00:00 TS 39.5000 -33.5000 main 1766 1749 _____________O -1 39.5000 -33.5000 TS 45 14 25
1888261N28320 1888 48 NA NA NOT_NAMED 1888-09-20 03:00:00 TS 40.1498 -33.1492 main 1756 1733 _____________P -1 40.1498 -33.1492 TS 45 14 22
1888261N28320 1888 48 NA NA NOT_NAMED 1888-09-20 06:00:00 ET 40.8000 -32.8000 main 1734 1725 _____________O -1 40.8000 -32.8000 EX 45 14 24
1888261N28320 1888 48 NA NA NOT_NAMED 1888-09-20 09:00:00 ET 41.4129 -32.4141 main 1728 1721 _____________P -1 41.4129 -32.4141 EX 40 13 27
1888261N28320 1888 48 NA NA NOT_NAMED 1888-09-20 12:00:00 ET 42.0000 -32.0000 main 1725 _____________O -1 42.0000 -32.0000 EX 35 13 28

About IBTrACS Database

This database is a web-friendly format of International Best Track Archive for Climate Stewardship (IBTrACS), a global best track data archive curated by NOAA dating back to 1842.

Updated: 2021-10-08